Time;durP1;ratioP1;P1;durP2;ratioP2;P2;SDS_P1;SDS_P2;PMS_P1;PMS_P2;Temp;Humidity;BMP_temperature;BMP_pressure;BME280_temperature;BME280_humidity;BME280_pressure;Samples;Min_cycle;Max_cycle;Signal;HPM_P1;HPM_P2
2022/03/04 00:16:28;;;;;;;16.03;6.73;;;;;;;-1.55;74.12;98696.91;5023483;28;20049;-58
2022/03/04 00:19:10;;;;;;;13.57;6.97;;;;;;;-1.50;74.26;98694.53;5018471;28;20053;-59
2022/03/04 00:21:44;;;;;;;20.13;7.80;;;;;;;-1.51;73.92;98693.69;5018069;28;20282;-59
2022/03/04 00:24:11;;;;;;;18.27;8.52;;;;;;;-1.56;74.40;98687.66;5014383;28;20128;-57
2022/03/04 00:26:37;;;;;;;15.30;8.10;;;;;;;-1.52;74.06;98686.09;5015776;28;20053;-56
2022/03/04 00:39:10;;;;;;;14.00;6.97;;;;;;;-1.04;69.57;98689.16;5014236;28;20040;-58
2022/03/04 00:41:35;;;;;;;17.83;7.33;;;;;;;-1.04;68.54;98687.50;5015790;28;20195;-57
2022/03/04 00:44:01;;;;;;;12.57;7.67;;;;;;;-1.04;68.80;98684.13;5015324;28;20140;-59
2022/03/04 00:46:27;;;;;;;17.13;8.93;;;;;;;-1.03;68.21;98684.16;5015833;28;20045;-59
2022/03/04 00:48:52;;;;;;;15.50;8.00;;;;;;;-0.94;67.45;98681.91;5015682;28;20372;-59
2022/03/04 00:51:18;;;;;;;12.30;6.30;;;;;;;-1.03;67.58;98678.28;5012556;28;20129;-59
2022/03/04 00:53:43;;;;;;;15.77;8.00;;;;;;;-0.95;67.34;98685.22;5014888;28;20049;-57
2022/03/04 00:56:11;;;;;;;14.80;7.03;;;;;;;-0.91;67.22;98678.59;5014348;28;20048;-59
2022/03/04 01:02:04;;;;;;;15.90;8.27;;;;;;;-0.84;66.26;98682.13;5013833;28;20510;-59
2022/03/04 01:04:30;;;;;;;17.37;8.37;;;;;;;-0.85;66.17;98673.75;5015778;28;20124;-58
2022/03/04 01:06:55;;;;;;;18.63;9.13;;;;;;;-0.72;66.25;98672.41;5014218;28;20244;-59
2022/03/04 01:09:21;;;;;;;16.97;8.23;;;;;;;-0.66;65.70;98675.06;5016233;28;20419;-57
2022/03/04 01:11:46;;;;;;;19.17;9.60;;;;;;;-0.55;64.74;98671.13;5013731;28;20785;-58
2022/03/04 01:14:12;;;;;;;21.07;9.33;;;;;;;-0.50;64.31;98675.50;5014297;28;20045;-57
2022/03/04 01:16:37;;;;;;;23.07;9.70;;;;;;;-0.52;64.12;98668.72;5017557;28;20476;-58
2022/03/04 01:19:03;;;;;;;19.83;10.23;;;;;;;-0.51;64.41;98671.25;5016352;28;20042;-57
2022/03/04 01:21:29;;;;;;;19.50;9.83;;;;;;;-0.61;64.28;98663.44;5014553;28;20042;-59
2022/03/04 01:23:54;;;;;;;22.33;9.30;;;;;;;-0.67;64.50;98664.13;5010100;28;20110;-58
2022/03/04 01:29:41;;;;;;;21.80;8.60;;;;;;;-0.86;66.20;98661.13;5015390;28;20124;-56
2022/03/04 01:32:07;;;;;;;17.07;9.33;;;;;;;-0.90;66.13;98664.38;5016945;28;20034;-57
2022/03/04 01:34:32;;;;;;;21.27;8.67;;;;;;;-0.95;66.93;98655.03;5017759;28;20406;-57
2022/03/04 01:36:58;;;;;;;18.13;9.60;;;;;;;-1.01;67.58;98654.84;5014178;28;20038;-56
2022/03/04 01:39:23;;;;;;;17.60;9.27;;;;;;;-0.95;67.52;98650.00;5017142;28;20137;-57
2022/03/04 01:41:49;;;;;;;22.60;9.33;;;;;;;-0.94;67.74;98654.22;5014704;28;20045;-54
2022/03/04 01:44:15;;;;;;;23.47;9.53;;;;;;;-0.91;67.80;98653.44;5017389;28;20052;-56
2022/03/04 01:46:40;;;;;;;17.73;9.10;;;;;;;-0.93;67.83;98647.50;5017286;28;20038;-56
2022/03/04 01:49:05;;;;;;;23.03;9.97;;;;;;;-0.99;68.13;98633.13;5018501;28;20045;-56
2022/03/04 01:51:31;;;;;;;21.63;10.23;;;;;;;-0.98;68.43;98641.53;5019305;28;20072;-57
2022/03/04 01:53:56;;;;;;;20.90;9.70;;;;;;;-1.07;69.22;98644.66;5016468;28;20034;-57
2022/03/04 01:59:44;;;;;;;18.73;9.83;;;;;;;-0.87;68.11;98637.63;5016990;28;20086;-57
2022/03/04 02:02:12;;;;;;;20.80;9.93;;;;;;;-0.86;67.84;98638.47;5018849;28;20516;-56
2022/03/04 02:04:38;;;;;;;18.93;10.63;;;;;;;-0.88;68.27;98647.63;5018585;28;20045;-55
2022/03/04 02:07:04;;;;;;;18.60;9.57;;;;;;;-0.83;68.02;98641.91;5019082;28;20034;-57
2022/03/04 02:09:29;;;;;;;18.47;8.93;;;;;;;-0.79;67.36;98637.81;5019089;28;20053;-53
2022/03/04 02:11:55;;;;;;;19.37;9.70;;;;;;;-0.76;67.47;98645.44;5020314;28;20045;-54
2022/03/04 02:14:20;;;;;;;22.50;9.97;;;;;;;-0.66;66.76;98638.16;5018313;28;20131;-55
2022/03/04 02:16:51;;;;;;;22.40;12.37;;;;;;;-0.68;66.77;98642.28;5019353;28;20045;-55
2022/03/04 02:19:18;;;;;;;18.83;10.70;;;;;;;-0.67;67.25;98640.63;5018535;28;20377;-56
2022/03/04 02:21:55;;;;;;;21.53;10.67;;;;;;;-0.77;67.68;98643.75;5018107;28;20053;-54
2022/03/04 02:28:35;;;;;;;20.97;9.23;;;;;;;-0.82;68.09;98635.22;5018890;28;20045;-55
2022/03/04 02:34:23;;;;;;;20.33;10.30;;;;;;;-0.82;68.27;98648.66;5016486;28;20129;-56
2022/03/04 02:36:49;;;;;;;23.27;10.20;;;;;;;-0.78;68.15;98644.56;5015296;28;20488;-58
2022/03/04 02:39:15;;;;;;;25.70;10.57;;;;;;;-0.85;68.40;98647.72;5016642;28;20501;-56
2022/03/04 02:41:40;;;;;;;20.07;10.70;;;;;;;-0.80;68.17;98641.13;5015212;28;20052;-55
2022/03/04 02:44:08;;;;;;;24.33;13.50;;;;;;;-0.86;68.46;98648.53;5014327;28;20037;-55
2022/03/04 02:46:35;;;;;;;28.07;12.37;;;;;;;-0.81;68.17;98644.47;5016851;28;20064;-57
2022/03/04 02:49:02;;;;;;;27.33;10.77;;;;;;;-0.75;68.55;98650.50;5014487;28;20042;-55
2022/03/04 02:51:27;;;;;;;26.13;11.80;;;;;;;-0.72;67.90;98654.78;5017095;28;20107;-54
2022/03/04 02:57:30;;;;;;;22.97;9.97;;;;;;;-0.62;68.00;98661.75;5014944;28;20040;-58
2022/03/04 02:59:56;;;;;;;18.53;10.50;;;;;;;-0.61;68.45;98669.34;5014768;28;20042;-55
2022/03/04 03:02:21;;;;;;;23.93;10.63;;;;;;;-0.70;68.96;98669.09;5014797;28;20316;-55
2022/03/04 03:04:46;;;;;;;21.73;10.80;;;;;;;-0.78;69.82;98672.22;5013382;28;20048;-56
2022/03/04 03:07:12;;;;;;;30.50;13.00;;;;;;;-0.80;70.49;98674.69;5016750;28;20046;-55
2022/03/04 03:09:37;;;;;;;25.10;11.07;;;;;;;-0.83;71.34;98673.78;5015447;28;20133;-54
2022/03/04 03:12:03;;;;;;;21.50;11.03;;;;;;;-0.88;72.30;98673.66;5015444;28;20113;-57
2022/03/04 03:14:28;;;;;;;27.07;10.97;;;;;;;-1.02;72.91;98668.25;5016775;28;20104;-57
2022/03/04 03:16:54;;;;;;;23.53;10.53;;;;;;;-1.04;73.71;98669.03;5014696;28;20042;-56
2022/03/04 03:19:19;;;;;;;22.77;10.63;;;;;;;-1.07;74.67;98669.81;5015410;28;20041;-57
2022/03/04 03:21:45;;;;;;;23.40;11.20;;;;;;;-1.13;75.41;98662.06;5014919;28;20042;-58
2022/03/04 03:27:32;;;;;;;31.43;12.60;;;;;;;-0.94;74.77;98664.28;5014413;28;20122;-54
2022/03/04 03:29:58;;;;;;;28.87;11.70;;;;;;;-0.78;73.59;98667.19;5015050;28;20149;-57
2022/03/04 03:32:24;;;;;;;25.80;11.10;;;;;;;-0.74;73.86;98667.31;5014373;28;20153;-57
2022/03/04 03:34:50;;;;;;;23.23;11.63;;;;;;;-0.69;73.80;98675.00;5014623;28;20669;-57
2022/03/04 03:37:15;;;;;;;27.73;12.77;;;;;;;-0.65;73.74;98670.06;5015083;28;20084;-56
2022/03/04 03:39:41;;;;;;;24.73;13.30;;;;;;;-0.65;73.39;98675.13;5015063;28;20042;-57
2022/03/04 03:42:07;;;;;;;27.83;12.87;;;;;;;-0.69;74.34;98677.50;5014819;28;20064;-57
2022/03/04 03:44:33;;;;;;;25.20;12.57;;;;;;;-0.53;73.56;98677.09;5014499;28;20068;-57
2022/03/04 03:46:59;;;;;;;26.87;12.83;;;;;;;-0.61;74.05;98676.03;5016227;28;20026;-56
2022/03/04 03:49:24;;;;;;;29.93;13.63;;;;;;;-0.72;75.41;98679.97;5016557;28;20056;-57
2022/03/04 03:55:14;;;;;;;24.37;12.20;;;;;;;-0.92;76.25;98687.81;5015930;28;20072;-56
2022/03/04 03:57:40;;;;;;;24.03;12.20;;;;;;;-0.94;76.50;98689.47;5014645;28;20048;-57
2022/03/04 04:00:06;;;;;;;27.33;12.93;;;;;;;-0.85;76.18;98693.88;5015610;28;20404;-57
2022/03/04 04:02:31;;;;;;;28.10;14.03;;;;;;;-0.85;75.63;98696.41;5017031;28;20484;-56
2022/03/04 04:04:57;;;;;;;25.40;13.93;;;;;;;-0.74;75.35;98704.22;5015348;28;20049;-57
2022/03/04 04:07:22;;;;;;;29.63;12.37;;;;;;;-0.82;75.20;98698.13;5014162;28;20033;-59
2022/03/04 04:09:47;;;;;;;28.97;13.03;;;;;;;-0.87;75.79;98708.06;5014385;28;20042;-55
2022/03/04 04:12:13;;;;;;;25.67;13.40;;;;;;;-0.89;75.77;98708.84;5016313;28;20053;-58
2022/03/04 04:14:38;;;;;;;25.50;12.63;;;;;;;-0.95;76.08;98705.34;5019912;28;20048;-56
2022/03/04 04:17:04;;;;;;;26.50;12.90;;;;;;;-0.88;75.78;98698.81;5014939;28;20097;-56
2022/03/04 04:19:29;;;;;;;27.70;13.07;;;;;;;-0.90;75.41;98700.44;5013379;28;20424;-54
2022/03/04 04:28:38;;;;;;;32.20;14.67;;;;;;;-1.04;77.62;98712.66;5013009;28;20475;-56
2022/03/04 04:31:03;;;;;;;31.40;14.40;;;;;;;-1.04;77.63;98724.38;5015242;28;20038;-56
2022/03/04 04:33:31;;;;;;;33.93;14.67;;;;;;;-1.11;77.71;98720.84;5017885;28;20081;-58
2022/03/04 04:35:56;;;;;;;36.60;15.43;;;;;;;-1.22;78.50;98721.31;5016758;28;20110;-58
2022/03/04 04:38:22;;;;;;;30.40;15.00;;;;;;;-1.23;79.30;98724.66;5012969;28;20083;-58
2022/03/04 04:40:47;;;;;;;28.93;14.00;;;;;;;-1.30;80.16;98723.63;5013362;28;20056;-55
2022/03/04 04:43:13;;;;;;;34.17;16.77;;;;;;;-1.11;79.90;98733.41;5013810;28;20046;-56
2022/03/04 04:45:38;;;;;;;31.10;14.73;;;;;;;-1.22;80.38;98736.41;5013820;28;20041;-57
2022/03/04 04:48:04;;;;;;;30.80;14.13;;;;;;;-1.09;79.78;98741.84;5013471;28;20064;-56
2022/03/04 04:53:53;;;;;;;32.23;14.37;;;;;;;-1.06;79.31;98736.88;5017528;28;20044;-56
2022/03/04 04:56:19;;;;;;;29.63;14.93;;;;;;;-1.04;79.58;98741.97;5014682;28;20471;-55
2022/03/04 04:58:45;;;;;;;29.77;13.80;;;;;;;-1.04;79.40;98741.97;5020518;28;20075;-56
2022/03/04 05:01:11;;;;;;;34.30;14.17;;;;;;;-1.10;80.21;98746.81;5012377;28;20057;-55
2022/03/04 05:03:36;;;;;;;33.87;15.53;;;;;;;-1.11;80.75;98747.66;5012853;28;20147;-57
2022/03/04 05:06:02;;;;;;;31.90;15.07;;;;;;;-1.09;81.16;98748.53;5015103;28;20548;-56
2022/03/04 05:08:29;;;;;;;32.47;16.33;;;;;;;-1.04;80.00;98741.97;5014970;28;20073;-57
2022/03/04 05:10:55;;;;;;;31.63;14.40;;;;;;;-1.00;79.84;98746.28;5016794;28;20030;-56
2022/03/04 05:13:21;;;;;;;38.00;16.07;;;;;;;-1.06;81.43;98751.16;5012570;28;20939;-60
2022/03/04 05:15:48;;;;;;;37.77;15.70;;;;;;;-1.00;81.86;98751.31;5013893;28;20033;-55
2022/03/04 05:21:57;;;;;;;37.30;16.83;;;;;;;-1.03;86.15;98757.13;5022113;28;20219;-57
2022/03/04 05:24:22;;;;;;;38.47;17.73;;;;;;;-1.14;88.64;98752.56;5020995;28;20052;-54
2022/03/04 05:26:47;;;;;;;49.77;21.80;;;;;;;-1.14;89.60;98762.63;5022924;28;20061;-56
2022/03/04 05:29:13;;;;;;;37.23;16.57;;;;;;;-1.05;89.98;98767.94;5019414;28;20073;-55
2022/03/04 05:31:41;;;;;;;38.20;17.70;;;;;;;-0.97;89.26;98774.03;5019197;28;20484;-56
2022/03/04 05:34:07;;;;;;;42.63;19.77;;;;;;;-1.07;91.56;98775.44;5019887;28;20080;-57
2022/03/04 05:36:34;;;;;;;38.43;17.60;;;;;;;-1.02;91.79;98781.44;5020713;28;20453;-56
2022/03/04 05:39:00;;;;;;;39.23;19.37;;;;;;;-1.01;91.26;98780.66;5020306;28;20451;-58
2022/03/04 05:41:26;;;;;;;43.73;20.80;;;;;;;-1.03;91.73;98789.81;5019789;28;20037;-57
2022/03/04 05:43:52;;;;;;;43.13;20.93;;;;;;;-0.99;92.30;98789.09;5018424;28;20403;-54
2022/03/04 05:46:18;;;;;;;40.20;20.70;;;;;;;-1.08;92.49;98781.28;5020964;28;20065;-53
2022/03/04 05:52:06;;;;;;;47.13;20.03;;;;;;;-1.06;95.05;98799.78;5019877;28;20045;-56
2022/03/04 05:54:32;;;;;;;47.63;20.87;;;;;;;-1.07;95.15;98803.13;5023153;28;20037;-57
2022/03/04 05:56:57;;;;;;;51.00;21.70;;;;;;;-1.09;96.31;98802.22;5022084;28;20045;-57
2022/03/04 05:59:23;;;;;;;46.93;22.43;;;;;;;-1.07;96.55;98804.78;5024985;28;20095;-58
2022/03/04 06:01:49;;;;;;;49.20;19.17;;;;;;;-1.03;96.25;98807.44;5022390;28;20451;-55
2022/03/04 06:04:14;;;;;;;44.93;19.90;;;;;;;-1.00;96.59;98814.22;5022240;28;20543;-57
2022/03/04 06:06:40;;;;;;;41.63;20.23;;;;;;;-1.02;96.58;98806.59;5018986;28;20499;-57
2022/03/04 06:09:05;;;;;;;43.63;19.33;;;;;;;-0.91;97.21;98806.94;5020963;28;20041;-54
2022/03/04 06:11:31;;;;;;;50.37;21.37;;;;;;;-0.84;97.38;98815.50;5020179;28;20534;-55
2022/03/04 06:13:56;;;;;;;46.20;20.17;;;;;;;-0.75;96.44;98816.63;5022508;28;20041;-57
2022/03/04 06:23:25;;;;;;;45.17;20.33;;;;;;;-0.84;97.26;98828.94;4995753;28;20049;-54
2022/03/04 06:25:50;;;;;;;45.13;21.37;;;;;;;-0.81;97.65;98835.75;5021982;28;20050;-56
2022/03/04 06:28:16;;;;;;;48.60;20.03;;;;;;;-0.83;97.94;98838.19;5020751;28;20048;-55
2022/03/04 06:30:42;;;;;;;46.60;22.63;;;;;;;-0.84;98.11;98845.69;5018396;28;20037;-56
2022/03/04 06:35:54;;;;;;;48.28;21.08;;;;;;;-0.95;98.91;98846.25;5016376;28;20095;-57
2022/03/04 06:38:20;;;;;;;50.00;21.07;;;;;;;-0.85;99.28;98862.47;5015959;28;20133;-56
2022/03/04 06:40:47;;;;;;;42.17;20.33;;;;;;;-0.83;99.53;98855.81;5017739;28;20444;-56
2022/03/04 06:43:13;;;;;;;52.87;21.03;;;;;;;-0.82;99.18;98862.56;5015656;28;20124;-58
2022/03/04 06:49:00;;;;;;;42.33;18.57;;;;;;;-0.74;99.97;98870.31;5015724;28;20574;-57
2022/03/04 06:51:27;;;;;;;45.43;20.60;;;;;;;-0.77;99.36;98875.28;5015273;28;20046;-57
2022/03/04 06:53:52;;;;;;;53.23;21.37;;;;;;;-0.76;99.06;98880.34;5017158;28;20045;-58
2022/03/04 06:56:18;;;;;;;47.77;19.87;;;;;;;-0.64;99.01;98864.75;5016233;28;20758;-55
2022/03/04 06:58:44;;;;;;;53.87;22.43;;;;;;;-0.67;98.89;98877.25;5018535;28;20120;-56
2022/03/04 07:01:09;;;;;;;46.10;20.77;;;;;;;-0.59;98.88;98870.75;5015984;28;20056;-56
2022/03/04 07:03:35;;;;;;;49.00;21.50;;;;;;;-0.60;99.08;98882.53;5020025;28;20049;-57
2022/03/04 07:06:00;;;;;;;48.53;20.47;;;;;;;-0.64;99.14;98870.66;5018604;28;20044;-56
2022/03/04 07:08:25;;;;;;;49.33;20.37;;;;;;;-0.61;98.52;98868.22;5015957;28;20034;-56
2022/03/04 07:10:51;;;;;;;45.87;20.50;;;;;;;-0.58;99.71;98875.84;5017094;28;20095;-54
2022/03/04 07:13:19;;;;;;;44.23;21.00;;;;;;;-0.68;99.42;98883.09;5015533;28;20132;-54
2022/03/04 07:19:07;;;;;;;49.13;20.90;;;;;;;-0.78;100.00;98878.59;5019778;28;20136;-57
2022/03/04 07:47:04;;;;;;;49.67;18.83;;;;;;;-0.29;96.34;98889.25;4979210;28;20105;-58
2022/03/04 07:49:30;;;;;;;44.90;20.07;;;;;;;-0.24;95.81;98895.28;4978711;28;20137;-60
2022/03/04 07:51:55;;;;;;;39.67;19.00;;;;;;;-0.16;94.76;98888.78;4980298;28;20157;-56
2022/03/04 07:54:21;;;;;;;44.63;19.43;;;;;;;-0.31;95.88;98890.03;4981033;28;20427;-56
2022/03/04 07:56:46;;;;;;;48.60;20.13;;;;;;;-0.36;96.80;98894.09;4978408;28;20046;-58
2022/03/04 07:59:12;;;;;;;44.80;19.77;;;;;;;-0.41;96.67;98898.97;4980305;28;20046;-58
2022/03/04 08:08:59;;;;;;;37.90;18.03;;;;;;;-0.51;98.52;98917.19;4977766;28;20143;-57
2022/03/04 08:18:08;;;;;;;44.23;18.47;;;;;;;-0.42;97.69;98924.97;4973711;28;20048;-58
2022/03/04 08:20:43;;;;;;;44.70;19.37;;;;;;;-0.46;98.38;98923.19;4975825;28;20042;-59
2022/03/04 08:23:08;;;;;;;56.60;20.65;;;;;;;-0.58;98.26;98925.34;4973293;28;20038;-59
2022/03/04 08:25:33;;;;;;;45.10;20.20;;;;;;;-0.65;99.43;98928.50;4974234;28;20045;-59
2022/03/04 08:27:59;;;;;;;45.50;19.30;;;;;;;-0.60;99.48;98932.88;4975619;28;20042;-57
2022/03/04 08:30:25;;;;;;;48.13;20.17;;;;;;;-0.65;100.00;98934.38;4976662;28;20089;-58
2022/03/04 08:32:50;;;;;;;44.13;18.67;;;;;;;-0.63;99.79;98929.38;4974612;28;20409;-59
2022/03/04 08:35:16;;;;;;;52.20;21.07;;;;;;;-0.50;99.27;98931.44;4976527;28;20034;-58
2022/03/04 08:37:42;;;;;;;45.03;20.20;;;;;;;-0.61;98.92;98932.81;4975237;28;20043;-60
2022/03/04 08:40:09;;;;;;;46.27;21.17;;;;;;;-0.57;98.82;98929.56;4975403;28;20031;-59
2022/03/04 08:42:36;;;;;;;39.07;17.33;;;;;;;-0.55;98.84;98933.84;5002084;28;20472;-58
2022/03/04 08:45:02;;;;;;;48.17;19.43;;;;;;;-0.47;98.29;98932.38;5013653;28;20121;-57
2022/03/04 08:47:27;;;;;;;51.97;18.70;;;;;;;-0.54;98.37;98919.59;5012910;28;20042;-56
2022/03/04 08:49:52;;;;;;;50.27;20.80;;;;;;;-0.55;97.58;98913.69;5015305;28;20080;-56
2022/03/04 08:52:18;;;;;;;45.07;17.93;;;;;;;-0.34;96.87;98897.50;5013376;28;20094;-56
2022/03/04 08:54:43;;;;;;;38.63;16.63;;;;;;;-0.34;95.00;98900.03;5011670;28;20034;-57
2022/03/04 08:57:09;;;;;;;40.60;16.23;;;;;;;-0.32;94.99;98893.34;5013816;28;20040;-56
2022/03/04 08:59:35;;;;;;;40.00;16.93;;;;;;;-0.18;94.33;98900.50;5014258;28;20056;-57
2022/03/04 09:02:00;;;;;;;42.37;18.63;;;;;;;-0.10;94.45;98909.13;5014461;28;20392;-54
2022/03/04 09:04:26;;;;;;;35.70;16.17;;;;;;;-0.03;93.14;98902.56;5014203;28;20139;-56
2022/03/04 09:06:51;;;;;;;42.60;18.80;;;;;;;0.08;92.09;98912.94;5014100;28;20034;-58
2022/03/04 09:09:17;;;;;;;42.73;19.80;;;;;;;0.17;91.59;98903.94;5015794;28;20502;-58
2022/03/04 09:11:43;;;;;;;44.87;18.63;;;;;;;0.25;90.60;98902.50;5014000;28;20049;-59
2022/03/04 09:14:08;;;;;;;43.83;18.13;;;;;;;0.24;90.53;98915.91;5013295;28;20068;-59
2022/03/04 09:16:34;;;;;;;34.00;16.87;;;;;;;0.30;90.11;98907.63;5014115;28;20041;-59
2022/03/04 09:18:59;;;;;;;44.90;18.80;;;;;;;0.24;89.65;98905.81;5013948;28;20087;-56
2022/03/04 09:21:25;;;;;;;39.93;18.33;;;;;;;0.49;90.17;98906.44;5015915;28;20400;-58
2022/03/04 09:23:51;;;;;;;42.50;18.67;;;;;;;0.59;88.62;98914.28;5015950;28;20083;-57
2022/03/04 09:26:16;;;;;;;50.40;19.93;;;;;;;0.68;87.57;98913.66;5014969;28;20459;-58
2022/03/04 09:28:41;;;;;;;42.07;19.17;;;;;;;0.85;87.10;98899.75;5017121;28;20041;-58
2022/03/04 09:31:07;;;;;;;46.13;20.53;;;;;;;0.97;84.59;98906.78;5013065;28;20056;-58
2022/03/04 09:33:32;;;;;;;44.37;20.67;;;;;;;1.09;84.29;98904.53;5013542;28;20060;-57
2022/03/04 09:36:00;;;;;;;34.67;18.43;;;;;;;1.13;82.77;98898.72;5013650;28;20053;-57
2022/03/04 09:38:25;;;;;;;47.87;20.43;;;;;;;1.37;80.89;98904.31;5013235;28;20578;-57
2022/03/04 09:40:51;;;;;;;33.23;18.07;;;;;;;1.39;80.54;98897.63;5013801;28;20042;-58
2022/03/04 09:43:18;;;;;;;44.93;19.80;;;;;;;1.59;79.02;98896.38;5014883;28;20041;-60
2022/03/04 09:45:49;;;;;;;42.70;17.73;;;;;;;1.59;76.39;98903.94;5012528;28;20116;-59
2022/03/04 09:48:15;;;;;;;45.90;22.67;;;;;;;1.83;75.76;98891.81;5013248;28;20030;-60
2022/03/04 09:50:43;;;;;;;35.67;19.07;;;;;;;1.98;73.21;98887.88;5011603;28;20038;-60
2022/03/04 09:53:11;;;;;;;48.03;20.73;;;;;;;2.07;72.41;98893.97;5012817;28;20053;-58
2022/03/04 09:55:37;;;;;;;37.87;16.90;;;;;;;2.16;71.32;98898.34;5012673;28;20108;-58
2022/03/04 09:58:05;;;;;;;35.90;19.17;;;;;;;1.93;70.99;98904.63;5013583;28;20052;-57
2022/03/04 10:00:30;;;;;;;37.57;20.20;;;;;;;1.88;71.24;98893.56;5011338;28;20112;-58
2022/03/04 10:02:56;;;;;;;34.77;15.90;;;;;;;1.90;70.86;98891.94;5015814;28;20492;-57
2022/03/04 10:05:21;;;;;;;44.53;19.07;;;;;;;2.18;69.72;98889.09;5018729;28;20049;-57
2022/03/04 10:07:49;;;;;;;37.70;18.13;;;;;;;2.48;68.64;98897.22;5015853;28;20037;-57
2022/03/04 10:10:17;;;;;;;41.33;17.77;;;;;;;2.42;67.95;98898.81;5017701;28;20070;-59
2022/03/04 10:12:55;;;;;;;41.47;17.30;;;;;;;2.72;65.94;98894.22;5016718;28;20095;-59
2022/03/04 10:15:22;;;;;;;40.70;17.00;;;;;;;2.61;64.89;98896.59;5015062;28;20046;-55
2022/03/04 10:18:04;;;;;;;35.63;15.87;;;;;;;2.34;64.96;98892.72;5021379;28;20036;-57
2022/03/04 10:20:42;;;;;;;36.00;16.37;;;;;;;1.94;66.02;98891.16;5015345;28;20046;-58
2022/03/04 10:23:14;;;;;;;37.97;17.93;;;;;;;2.13;65.39;98893.19;5017601;28;20042;-55
2022/03/04 10:25:43;;;;;;;32.37;13.70;;;;;;;2.36;64.11;98897.00;5019933;28;20045;-58
2022/03/04 10:28:10;;;;;;;38.37;16.30;;;;;;;2.51;63.90;98894.72;5018339;28;20049;-55
2022/03/04 10:30:36;;;;;;;32.17;14.93;;;;;;;2.40;63.11;98880.19;5015682;28;20056;-55
2022/03/04 10:33:09;;;;;;;35.37;15.97;;;;;;;2.68;62.29;98884.88;5017837;28;20037;-54
2022/03/04 10:35:35;;;;;;;35.17;14.90;;;;;;;2.69;62.04;98889.13;5017814;28;20048;-57
2022/03/04 10:38:02;;;;;;;33.67;16.10;;;;;;;2.57;61.47;98894.00;5015677;28;20049;-57
2022/03/04 10:40:43;;;;;;;35.57;13.80;;;;;;;2.34;62.27;98892.72;5018085;28;20052;-55
2022/03/04 10:43:10;;;;;;;42.93;14.90;;;;;;;2.42;61.68;98883.63;5017789;28;20182;-59
2022/03/04 10:45:37;;;;;;;38.57;15.77;;;;;;;2.76;62.65;98891.78;5014780;28;20053;-54
2022/03/04 10:48:24;;;;;;;43.37;19.10;;;;;;;3.13;60.37;98887.28;5014688;28;20042;-57
2022/03/04 10:50:57;;;;;;;31.47;17.30;;;;;;;3.29;58.53;98899.34;5015413;28;20798;-56
2022/03/04 10:53:31;;;;;;;33.53;16.50;;;;;;;3.06;58.80;98890.53;5018463;28;20030;-56
2022/03/04 10:56:02;;;;;;;33.60;18.27;;;;;;;3.30;58.95;98883.31;5018957;28;20068;-56
2022/03/04 10:58:36;;;;;;;37.27;16.17;;;;;;;3.43;56.60;98884.34;5016534;28;20499;-56
2022/03/04 11:01:16;;;;;;;33.00;16.47;;;;;;;3.69;56.25;98885.53;5016427;28;20087;-56
2022/03/04 11:03:42;;;;;;;36.43;16.13;;;;;;;4.03;55.20;98877.44;5015989;28;20087;-58
2022/03/04 11:06:10;;;;;;;32.90;14.03;;;;;;;3.72;55.40;98866.94;5015582;28;20057;-57
2022/03/04 11:08:36;;;;;;;37.30;15.50;;;;;;;3.82;55.38;98879.72;5016017;28;20038;-56
2022/03/04 11:11:03;;;;;;;42.43;19.87;;;;;;;4.10;55.71;98874.16;5017242;28;20096;-56
2022/03/04 11:13:30;;;;;;;30.27;15.97;;;;;;;4.47;54.04;98870.28;5017246;28;20034;-57
2022/03/04 11:15:56;;;;;;;30.23;14.53;;;;;;;3.99;54.91;98870.63;5014393;28;20044;-57
2022/03/04 11:18:22;;;;;;;25.07;13.13;;;;;;;3.92;55.00;98878.16;5015174;28;20042;-57
2022/03/04 11:20:50;;;;;;;31.80;13.77;;;;;;;3.92;54.52;98879.00;5018016;28;20132;-56
2022/03/04 11:23:19;;;;;;;33.67;15.80;;;;;;;3.80;55.06;98876.34;5017537;28;20060;-57
2022/03/04 11:25:53;;;;;;;30.23;14.57;;;;;;;3.80;54.55;98878.03;5015598;28;20038;-58
2022/03/04 11:28:19;;;;;;;29.70;15.20;;;;;;;4.08;55.02;98875.81;5017091;28;20056;-57
2022/03/04 11:30:48;;;;;;;48.73;26.23;;;;;;;4.21;54.16;98881.84;5017083;28;20120;-57
2022/03/04 11:33:16;;;;;;;30.30;15.70;;;;;;;4.01;54.22;98885.88;5015874;28;20446;-57
2022/03/04 11:35:41;;;;;;;29.57;14.60;;;;;;;3.95;54.34;98878.19;5014226;28;20617;-56
2022/03/04 11:38:10;;;;;;;28.17;14.63;;;;;;;3.95;54.33;98866.38;5015685;28;20050;-56
2022/03/04 11:40:38;;;;;;;24.13;13.03;;;;;;;3.65;54.18;98877.00;5019056;28;20026;-56
2022/03/04 11:43:06;;;;;;;30.33;13.57;;;;;;;3.75;55.30;98867.81;5018315;28;20053;-56
2022/03/04 11:45:33;;;;;;;25.83;12.13;;;;;;;3.53;54.71;98869.25;5016517;28;20530;-57
2022/03/04 11:48:08;;;;;;;28.43;13.90;;;;;;;3.65;54.14;98864.31;5017340;28;20084;-55
2022/03/04 11:50:36;;;;;;;29.15;14.35;;;;;;;3.96;54.28;98870.59;5016856;28;20725;-56
2022/03/04 11:53:18;;;;;;;31.80;14.67;;;;;;;3.92;55.04;98863.81;5017161;28;20084;-56
2022/03/04 11:56:14;;;;;;;31.20;15.87;;;;;;;3.88;54.26;98872.22;5015293;28;20400;-57
2022/03/04 11:59:18;;;;;;;26.15;13.00;;;;;;;3.65;55.46;98869.41;5019946;28;20034;-56
2022/03/04 12:01:44;;;;;;;28.33;16.30;;;;;;;3.77;55.08;98872.94;5015853;28;20045;-57
2022/03/04 12:04:15;;;;;;;32.00;18.70;;;;;;;4.00;54.53;98866.41;5015033;28;20507;-54
2022/03/04 12:06:42;;;;;;;26.57;13.97;;;;;;;4.34;53.79;98863.38;5014873;28;20125;-56
2022/03/04 12:09:29;;;;;;;27.47;15.17;;;;;;;3.88;53.87;98861.22;5016116;28;20041;-52
2022/03/04 12:12:14;;;;;;;36.03;32.43;;;;;;;4.12;54.05;98862.31;5014512;28;20041;-55
2022/03/04 12:14:51;;;;;;;30.23;19.92;;;;;;;3.91;54.03;98857.03;5014603;28;20061;-51
2022/03/04 12:17:17;;;;;;;30.27;16.70;;;;;;;3.58;53.95;98861.69;5015095;28;20147;-56
2022/03/04 12:19:44;;;;;;;23.40;15.20;;;;;;;3.73;54.53;98851.75;5015510;28;20049;-56
2022/03/04 12:22:14;;;;;;;27.70;15.73;;;;;;;3.31;55.11;98864.72;5013298;28;20832;-54
2022/03/04 12:24:51;;;;;;;29.63;18.07;;;;;;;3.43;54.87;98862.38;5014093;28;20427;-53
2022/03/04 12:27:38;;;;;;;33.10;18.00;;;;;;;3.64;54.77;98851.66;5010770;28;20956;-51
2022/03/04 12:30:22;;;;;;;33.20;19.40;;;;;;;3.78;54.49;98855.19;5014572;28;20061;-55
2022/03/04 12:32:50;;;;;;;21.77;14.57;;;;;;;4.04;54.06;98855.47;5014526;28;20473;-52
2022/03/04 12:35:16;;;;;;;28.73;14.17;;;;;;;4.07;53.97;98865.66;5014999;28;20403;-55
2022/03/04 12:37:42;;;;;;;31.00;13.83;;;;;;;3.96;54.46;98857.06;5012489;28;20093;-54
2022/03/04 12:40:09;;;;;;;26.17;11.80;;;;;;;3.80;53.99;98852.66;5013693;28;20041;-53
2022/03/04 12:42:34;;;;;;;25.30;11.67;;;;;;;3.95;54.30;98848.59;5011152;28;20056;-54
2022/03/04 12:44:59;;;;;;;24.10;12.90;;;;;;;3.86;54.57;98848.50;5012893;28;20392;-56
2022/03/04 12:47:25;;;;;;;28.03;12.70;;;;;;;3.49;54.15;98857.38;5011930;28;20828;-55
2022/03/04 12:49:52;;;;;;;25.27;13.03;;;;;;;3.34;55.24;98849.59;5014353;28;20041;-54
2022/03/04 12:52:20;;;;;;;27.47;13.77;;;;;;;3.52;55.52;98848.97;5013820;28;20098;-52
2022/03/04 12:54:45;;;;;;;23.23;12.07;;;;;;;3.73;54.85;98845.84;5014580;28;20048;-52
2022/03/04 12:57:10;;;;;;;25.57;13.23;;;;;;;3.83;55.08;98847.63;5015240;28;20041;-55
2022/03/04 12:59:44;;;;;;;28.93;13.07;;;;;;;3.80;55.17;98847.59;5013445;28;20052;-55
2022/03/04 13:02:10;;;;;;;26.77;12.90;;;;;;;3.96;54.99;98839.31;5013912;28;20044;-55
2022/03/04 13:04:35;;;;;;;23.93;11.43;;;;;;;3.89;54.62;98847.72;5012334;28;20041;-54
2022/03/04 13:07:01;;;;;;;26.67;14.40;;;;;;;3.91;54.41;98848.56;5013229;28;20038;-54
2022/03/04 13:09:27;;;;;;;24.70;12.50;;;;;;;4.15;53.40;98843.75;5012349;28;20123;-56
2022/03/04 13:11:54;;;;;;;23.23;12.43;;;;;;;4.29;53.44;98846.41;5012877;28;20219;-53
2022/03/04 13:14:21;;;;;;;41.73;24.80;;;;;;;4.39;53.71;98845.66;5014526;28;20033;-52
2022/03/04 13:16:56;;;;;;;51.27;31.43;;;;;;;4.64;52.45;98841.63;5013240;28;20037;-54
2022/03/04 13:19:25;;;;;;;62.97;46.45;;;;;;;4.82;52.55;98844.31;5014041;28;20048;-56
2022/03/04 13:21:57;;;;;;;33.77;18.07;;;;;;;4.55;52.02;98842.41;5020115;28;20052;-54
2022/03/04 13:24:28;;;;;;;26.70;13.30;;;;;;;4.64;52.31;98844.16;5017026;28;20396;-55
2022/03/04 13:27:04;;;;;;;23.63;12.13;;;;;;;4.74;52.14;98846.81;5014495;28;20045;-57
2022/03/04 13:29:55;;;;;;;25.20;12.00;;;;;;;4.72;51.42;98837.47;5016099;28;20913;-56